sensor_id;sensor_type;location;lat;lon;timestamp;pressure;altitude;pressure_sealevel;temperature
75428;BMP280;64008;55.612;37.698;2023-06-04T00:01:53;99858.13;;;18.74
75428;BMP280;64008;55.612;37.698;2023-06-04T00:04:18;99856.78;;;18.72
75428;BMP280;64008;55.612;37.698;2023-06-04T00:06:44;99856.75;;;18.77
75428;BMP280;64008;55.612;37.698;2023-06-04T00:09:09;99857.63;;;18.72
75428;BMP280;64008;55.612;37.698;2023-06-04T00:11:35;99854.38;;;18.70
75428;BMP280;64008;55.612;37.698;2023-06-04T00:14:01;99850.88;;;18.75
75428;BMP280;64008;55.612;37.698;2023-06-04T00:16:27;99859.25;;;18.68
75428;BMP280;64008;55.612;37.698;2023-06-04T00:18:52;99859.81;;;18.65
75428;BMP280;64008;55.612;37.698;2023-06-04T00:21:18;99861.16;;;18.63
75428;BMP280;64008;55.612;37.698;2023-06-04T00:23:43;99863.56;;;18.64
75428;BMP280;64008;55.612;37.698;2023-06-04T00:26:09;99865.16;;;18.65
75428;BMP280;64008;55.612;37.698;2023-06-04T00:28:35;99879.03;;;18.67
75428;BMP280;64008;55.612;37.698;2023-06-04T00:31:04;99871.00;;;18.72
75428;BMP280;64008;55.612;37.698;2023-06-04T00:33:29;99874.50;;;18.68
75428;BMP280;64008;55.612;37.698;2023-06-04T00:35:55;99875.31;;;18.68
75428;BMP280;64008;55.612;37.698;2023-06-04T00:38:20;99877.50;;;18.61
75428;BMP280;64008;55.612;37.698;2023-06-04T00:40:46;99876.41;;;18.62
75428;BMP280;64008;55.612;37.698;2023-06-04T00:43:11;99898.91;;;18.61
75428;BMP280;64008;55.612;37.698;2023-06-04T00:45:39;99873.19;;;18.65
75428;BMP280;64008;55.612;37.698;2023-06-04T00:48:05;99869.22;;;18.57
75428;BMP280;64008;55.612;37.698;2023-06-04T00:50:31;99883.16;;;18.60
75428;BMP280;64008;55.612;37.698;2023-06-04T00:52:58;99885.53;;;18.56
75428;BMP280;64008;55.612;37.698;2023-06-04T00:55:24;99877.78;;;18.60
75428;BMP280;64008;55.612;37.698;2023-06-04T00:57:50;99889.59;;;18.53
75428;BMP280;64008;55.612;37.698;2023-06-04T01:00:15;99867.97;;;18.50
75428;BMP280;64008;55.612;37.698;2023-06-04T01:02:43;99892.28;;;18.53
75428;BMP280;64008;55.612;37.698;2023-06-04T01:05:23;99884.03;;;18.50
75428;BMP280;64008;55.612;37.698;2023-06-04T01:07:54;99886.72;;;18.45
75428;BMP280;64008;55.612;37.698;2023-06-04T01:10:21;99889.66;;;18.43
75428;BMP280;64008;55.612;37.698;2023-06-04T01:12:47;99900.88;;;18.50
75428;BMP280;64008;55.612;37.698;2023-06-04T01:15:12;99904.88;;;18.48
75428;BMP280;64008;55.612;37.698;2023-06-04T01:17:43;99903.53;;;18.50
75428;BMP280;64008;55.612;37.698;2023-06-04T01:25:21;99915.63;;;18.38
75428;BMP280;64008;55.612;37.698;2023-06-04T01:27:50;99916.16;;;18.40
75428;BMP280;64008;55.612;37.698;2023-06-04T01:30:21;99912.97;;;18.38
75428;BMP280;64008;55.612;37.698;2023-06-04T01:32:48;99923.66;;;18.38
75428;BMP280;64008;55.612;37.698;2023-06-04T01:35:14;99922.06;;;18.36
75428;BMP280;64008;55.612;37.698;2023-06-04T01:37:39;99920.50;;;18.35
75428;BMP280;64008;55.612;37.698;2023-06-04T01:40:06;99880.63;;;18.34
75428;BMP280;64008;55.612;37.698;2023-06-04T01:42:33;99894.81;;;18.34
75428;BMP280;64008;55.612;37.698;2023-06-04T01:44:59;99893.19;;;18.39
75428;BMP280;64008;55.612;37.698;2023-06-04T01:47:24;99899.84;;;18.41
75428;BMP280;64008;55.612;37.698;2023-06-04T01:49:50;99898.00;;;18.36
75428;BMP280;64008;55.612;37.698;2023-06-04T01:52:16;99910.25;;;18.43
75428;BMP280;64008;55.612;37.698;2023-06-04T01:54:42;99912.16;;;18.37
75428;BMP280;64008;55.612;37.698;2023-06-04T01:57:08;99912.97;;;18.38
75428;BMP280;64008;55.612;37.698;2023-06-04T01:59:35;99917.78;;;18.41
75428;BMP280;64008;55.612;37.698;2023-06-04T02:02:02;99919.94;;;18.39
75428;BMP280;64008;55.612;37.698;2023-06-04T02:04:28;99910.59;;;18.36
75428;BMP280;64008;55.612;37.698;2023-06-04T02:06:53;99919.94;;;18.39
75428;BMP280;64008;55.612;37.698;2023-06-04T02:09:19;99921.81;;;18.33
75428;BMP280;64008;55.612;37.698;2023-06-04T02:11:44;99917.25;;;18.33
75428;BMP280;64008;55.612;37.698;2023-06-04T02:14:10;99926.34;;;18.38
75428;BMP280;64008;55.612;37.698;2023-06-04T02:16:35;99930.38;;;18.35
75428;BMP280;64008;55.612;37.698;2023-06-04T02:19:02;99925.53;;;18.37
75428;BMP280;64008;55.612;37.698;2023-06-04T02:21:28;99934.38;;;18.38
75428;BMP280;64008;55.612;37.698;2023-06-04T02:23:54;99932.25;;;18.34
75428;BMP280;64008;55.612;37.698;2023-06-04T02:26:19;99940.28;;;18.34
75428;BMP280;64008;55.612;37.698;2023-06-04T02:28:45;99938.13;;;18.36
75428;BMP280;64008;55.612;37.698;2023-06-04T02:31:10;99942.66;;;18.41
75428;BMP280;64008;55.612;37.698;2023-06-04T02:33:36;99945.34;;;18.36
75428;BMP280;64008;55.612;37.698;2023-06-04T02:36:01;99952.59;;;18.35
75428;BMP280;64008;55.612;37.698;2023-06-04T02:38:27;99947.75;;;18.38
75428;BMP280;64008;55.612;37.698;2023-06-04T02:40:52;99957.94;;;18.35
75428;BMP280;64008;55.612;37.698;2023-06-04T02:43:18;99957.13;;;18.35
75428;BMP280;64008;55.612;37.698;2023-06-04T02:45:44;99950.16;;;18.39
75428;BMP280;64008;55.612;37.698;2023-06-04T02:48:10;99964.06;;;18.41
75428;BMP280;64008;55.612;37.698;2023-06-04T02:50:35;99969.97;;;18.33
75428;BMP280;64008;55.612;37.698;2023-06-04T02:53:01;99973.66;;;18.42
75428;BMP280;64008;55.612;37.698;2023-06-04T02:55:26;99965.41;;;18.39
75428;BMP280;64008;55.612;37.698;2023-06-04T02:57:52;99969.66;;;18.40
75428;BMP280;64008;55.612;37.698;2023-06-04T03:00:17;99981.47;;;18.39
75428;BMP280;64008;55.612;37.698;2023-06-04T03:02:45;99979.31;;;18.41
75428;BMP280;64008;55.612;37.698;2023-06-04T03:05:12;99976.66;;;18.30
75428;BMP280;64008;55.612;37.698;2023-06-04T03:07:40;99991.88;;;18.40
75428;BMP280;64008;55.612;37.698;2023-06-04T03:10:08;99985.69;;;18.45
75428;BMP280;64008;55.612;37.698;2023-06-04T03:12:34;99988.63;;;18.43
75428;BMP280;64008;55.612;37.698;2023-06-04T03:15:00;99994.53;;;18.45
75428;BMP280;64008;55.612;37.698;2023-06-04T03:17:26;99996.16;;;18.41
75428;BMP280;64008;55.612;37.698;2023-06-04T03:19:51;100006.56;;;18.43
75428;BMP280;64008;55.612;37.698;2023-06-04T03:22:17;100010.59;;;18.45
75428;BMP280;64008;55.612;37.698;2023-06-04T03:24:42;100018.31;;;18.47
75428;BMP280;64008;55.612;37.698;2023-06-04T03:27:09;100015.63;;;18.52
75428;BMP280;64008;55.612;37.698;2023-06-04T03:29:36;100023.94;;;18.50
75428;BMP280;64008;55.612;37.698;2023-06-04T03:32:02;100026.31;;;18.57
75428;BMP280;64008;55.612;37.698;2023-06-04T03:34:29;100026.06;;;18.53
75428;BMP280;64008;55.612;37.698;2023-06-04T03:36:58;100030.00;;;18.66
75428;BMP280;64008;55.612;37.698;2023-06-04T03:39:23;100032.69;;;18.66
75428;BMP280;64008;55.612;37.698;2023-06-04T03:41:49;100033.78;;;18.60
75428;BMP280;64008;55.612;37.698;2023-06-04T03:44:16;100035.38;;;18.61
75428;BMP280;64008;55.612;37.698;2023-06-04T03:46:42;100031.34;;;18.64
75428;BMP280;64008;55.612;37.698;2023-06-04T03:49:12;100037.28;;;18.61
75428;BMP280;64008;55.612;37.698;2023-06-04T03:51:38;100037.53;;;18.59
75428;BMP280;64008;55.612;37.698;2023-06-04T03:54:03;100033.28;;;18.58
75428;BMP280;64008;55.612;37.698;2023-06-04T03:56:29;100033.00;;;18.60
75428;BMP280;64008;55.612;37.698;2023-06-04T03:58:55;100040.72;;;18.61
75428;BMP280;64008;55.612;37.698;2023-06-04T04:01:21;100042.81;;;18.74
75428;BMP280;64008;55.612;37.698;2023-06-04T04:03:49;100049.53;;;18.67
75428;BMP280;64008;55.612;37.698;2023-06-04T04:06:15;100046.59;;;18.68
75428;BMP280;64008;55.612;37.698;2023-06-04T04:08:41;100043.94;;;18.63
75428;BMP280;64008;55.612;37.698;2023-06-04T04:11:13;100047.16;;;18.65
75428;BMP280;64008;55.612;37.698;2023-06-04T04:13:39;100056.78;;;18.66
75428;BMP280;64008;55.612;37.698;2023-06-04T04:16:05;100055.13;;;18.70
75428;BMP280;64008;55.612;37.698;2023-06-04T04:18:34;100058.63;;;18.71
75428;BMP280;64008;55.612;37.698;2023-06-04T04:21:00;100049.47;;;18.82
75428;BMP280;64008;55.612;37.698;2023-06-04T04:23:26;100055.03;;;18.91
75428;BMP280;64008;55.612;37.698;2023-06-04T04:25:52;100064.91;;;18.95
75428;BMP280;64008;55.612;37.698;2023-06-04T04:28:19;100062.16;;;19.06
75428;BMP280;64008;55.612;37.698;2023-06-04T04:30:46;100068.81;;;19.13
75428;BMP280;64008;55.612;37.698;2023-06-04T04:33:12;100062.38;;;19.14
75428;BMP280;64008;55.612;37.698;2023-06-04T04:35:41;100068.25;;;19.16
75428;BMP280;64008;55.612;37.698;2023-06-04T04:38:07;100058.41;;;19.07
75428;BMP280;64008;55.612;37.698;2023-06-04T04:40:33;100084.44;;;18.96
75428;BMP280;64008;55.612;37.698;2023-06-04T04:42:59;100068.69;;;18.89
75428;BMP280;64008;55.612;37.698;2023-06-04T04:45:24;100076.25;;;18.82
75428;BMP280;64008;55.612;37.698;2023-06-04T04:47:50;100070.88;;;18.77
75428;BMP280;64008;55.612;37.698;2023-06-04T04:50:19;100067.94;;;18.84
75428;BMP280;64008;55.612;37.698;2023-06-04T04:52:44;100065.53;;;18.77
75428;BMP280;64008;55.612;37.698;2023-06-04T04:55:10;100075.72;;;18.75
75428;BMP280;64008;55.612;37.698;2023-06-04T04:57:37;100070.34;;;18.75
75428;BMP280;64008;55.612;37.698;2023-06-04T05:00:03;100068.47;;;18.81
75428;BMP280;64008;55.612;37.698;2023-06-04T05:02:31;100089.63;;;18.82
75428;BMP280;64008;55.612;37.698;2023-06-04T05:04:56;100084.28;;;18.82
75428;BMP280;64008;55.612;37.698;2023-06-04T05:07:22;100083.66;;;18.95
75428;BMP280;64008;55.612;37.698;2023-06-04T05:09:48;100092.63;;;19.15
75428;BMP280;64008;55.612;37.698;2023-06-04T05:12:14;100092.38;;;19.16
75428;BMP280;64008;55.612;37.698;2023-06-04T05:14:40;100092.72;;;19.05
75428;BMP280;64008;55.612;37.698;2023-06-04T05:17:07;100087.50;;;19.18
75428;BMP280;64008;55.612;37.698;2023-06-04T05:19:35;100089.16;;;19.14
75428;BMP280;64008;55.612;37.698;2023-06-04T05:22:02;100101.38;;;17.85
75428;BMP280;64008;55.612;37.698;2023-06-04T05:24:28;100093.84;;;17.21
75428;BMP280;64008;55.612;37.698;2023-06-04T05:26:57;100087.91;;;16.93
75428;BMP280;64008;55.612;37.698;2023-06-04T05:29:23;100090.53;;;15.88
75428;BMP280;64008;55.612;37.698;2023-06-04T05:31:49;100103.00;;;15.55
75428;BMP280;64008;55.612;37.698;2023-06-04T05:34:15;100096.22;;;15.42
75428;BMP280;64008;55.612;37.698;2023-06-04T05:36:42;100096.56;;;15.78
75428;BMP280;64008;55.612;37.698;2023-06-04T05:39:08;100088.63;;;16.20
75428;BMP280;64008;55.612;37.698;2023-06-04T05:41:35;100092.16;;;16.31
75428;BMP280;64008;55.612;37.698;2023-06-04T05:44:01;100090.28;;;16.27
75428;BMP280;64008;55.612;37.698;2023-06-04T05:46:29;100097.09;;;16.55
75428;BMP280;64008;55.612;37.698;2023-06-04T05:48:55;100101.00;;;16.37
75428;BMP280;64008;55.612;37.698;2023-06-04T05:51:20;100095.13;;;16.40
75428;BMP280;64008;55.612;37.698;2023-06-04T05:53:46;100103.91;;;16.35
75428;BMP280;64008;55.612;37.698;2023-06-04T05:56:13;100093.09;;;16.15
75428;BMP280;64008;55.612;37.698;2023-06-04T05:58:38;100105.88;;;16.13
75428;BMP280;64008;55.612;37.698;2023-06-04T06:01:04;100092.75;;;16.38
75428;BMP280;64008;55.612;37.698;2023-06-04T06:03:30;100100.50;;;16.50
75428;BMP280;64008;55.612;37.698;2023-06-04T06:05:56;100087.38;;;16.86
75428;BMP280;64008;55.612;37.698;2023-06-04T06:08:22;100089.44;;;16.79
75428;BMP280;64008;55.612;37.698;2023-06-04T06:10:48;100108.38;;;16.72
75428;BMP280;64008;55.612;37.698;2023-06-04T06:13:13;100107.41;;;16.99
75428;BMP280;64008;55.612;37.698;2023-06-04T06:15:39;100104.00;;;17.24
75428;BMP280;64008;55.612;37.698;2023-06-04T06:18:04;100104.34;;;16.64
75428;BMP280;64008;55.612;37.698;2023-06-04T06:20:30;100103.50;;;16.54
75428;BMP280;64008;55.612;37.698;2023-06-04T06:22:57;100109.00;;;17.00
75428;BMP280;64008;55.612;37.698;2023-06-04T06:25:23;100109.53;;;16.39
75428;BMP280;64008;55.612;37.698;2023-06-04T06:27:48;100115.22;;;16.10
75428;BMP280;64008;55.612;37.698;2023-06-04T06:30:15;100120.69;;;16.36
75428;BMP280;64008;55.612;37.698;2023-06-04T06:32:42;100113.78;;;16.35
75428;BMP280;64008;55.612;37.698;2023-06-04T06:35:08;100109.91;;;16.58
75428;BMP280;64008;55.612;37.698;2023-06-04T06:37:33;100121.19;;;16.70
75428;BMP280;64008;55.612;37.698;2023-06-04T06:39:59;100114.56;;;16.88
75428;BMP280;64008;55.612;37.698;2023-06-04T06:42:25;100101.00;;;17.05
75428;BMP280;64008;55.612;37.698;2023-06-04T06:44:50;100101.63;;;17.27
75428;BMP280;64008;55.612;37.698;2023-06-04T06:47:16;100107.25;;;17.31
75428;BMP280;64008;55.612;37.698;2023-06-04T06:49:42;100098.22;;;16.69
75428;BMP280;64008;55.612;37.698;2023-06-04T06:52:08;100093.13;;;16.67
75428;BMP280;64008;55.612;37.698;2023-06-04T06:54:33;100106.22;;;16.64
75428;BMP280;64008;55.612;37.698;2023-06-04T06:56:59;100110.09;;;17.04
75428;BMP280;64008;55.612;37.698;2023-06-04T06:59:24;100104.25;;;17.07
75428;BMP280;64008;55.612;37.698;2023-06-04T07:01:51;100113.94;;;17.54
75428;BMP280;64008;55.612;37.698;2023-06-04T07:04:16;100098.16;;;17.37
75428;BMP280;64008;55.612;37.698;2023-06-04T07:06:43;100117.94;;;17.46
75428;BMP280;64008;55.612;37.698;2023-06-04T07:09:08;100116.84;;;17.32
75428;BMP280;64008;55.612;37.698;2023-06-04T07:11:34;100116.81;;;17.17
75428;BMP280;64008;55.612;37.698;2023-06-04T07:14:00;100117.38;;;17.34
75428;BMP280;64008;55.612;37.698;2023-06-04T07:16:28;100121.94;;;17.49
75428;BMP280;64008;55.612;37.698;2023-06-04T07:18:53;100122.97;;;17.17
75428;BMP280;64008;55.612;37.698;2023-06-04T07:21:19;100128.81;;;17.14
75428;BMP280;64008;55.612;37.698;2023-06-04T07:23:47;100124.84;;;17.17
75428;BMP280;64008;55.612;37.698;2023-06-04T07:26:15;100115.84;;;16.70
75428;BMP280;64008;55.612;37.698;2023-06-04T07:28:41;100112.34;;;16.64
75428;BMP280;64008;55.612;37.698;2023-06-04T07:31:07;100111.88;;;16.83
75428;BMP280;64008;55.612;37.698;2023-06-04T07:33:32;100105.56;;;17.04
75428;BMP280;64008;55.612;37.698;2023-06-04T07:35:58;100129.59;;;17.15
75428;BMP280;64008;55.612;37.698;2023-06-04T07:38:24;100118.63;;;16.96
75428;BMP280;64008;55.612;37.698;2023-06-04T07:40:50;100117.09;;;17.30
75428;BMP280;64008;55.612;37.698;2023-06-04T07:43:15;100128.00;;;17.08
75428;BMP280;64008;55.612;37.698;2023-06-04T07:45:41;100122.44;;;16.57
75428;BMP280;64008;55.612;37.698;2023-06-04T07:48:09;100127.69;;;16.95
75428;BMP280;64008;55.612;37.698;2023-06-04T07:50:36;100121.13;;;17.38
75428;BMP280;64008;55.612;37.698;2023-06-04T07:53:01;100114.44;;;17.25
75428;BMP280;64008;55.612;37.698;2023-06-04T07:55:27;100119.78;;;17.30
75428;BMP280;64008;55.612;37.698;2023-06-04T07:57:52;100123.53;;;17.45
75428;BMP280;64008;55.612;37.698;2023-06-04T08:00:18;100111.00;;;17.71
75428;BMP280;64008;55.612;37.698;2023-06-04T08:02:43;100116.03;;;17.26
75428;BMP280;64008;55.612;37.698;2023-06-04T08:05:09;100141.13;;;17.25
75428;BMP280;64008;55.612;37.698;2023-06-04T08:07:35;100127.03;;;17.50
75428;BMP280;64008;55.612;37.698;2023-06-04T08:10:00;100123.31;;;17.67
75428;BMP280;64008;55.612;37.698;2023-06-04T08:12:26;100125.84;;;17.00
75428;BMP280;64008;55.612;37.698;2023-06-04T08:14:51;100124.97;;;16.84
75428;BMP280;64008;55.612;37.698;2023-06-04T08:17:20;100134.44;;;17.18
75428;BMP280;64008;55.612;37.698;2023-06-04T08:19:45;100129.66;;;17.35
75428;BMP280;64008;55.612;37.698;2023-06-04T08:22:11;100126.19;;;17.35
75428;BMP280;64008;55.612;37.698;2023-06-04T08:24:36;100124.56;;;17.34
75428;BMP280;64008;55.612;37.698;2023-06-04T08:27:02;100120.59;;;17.31
75428;BMP280;64008;55.612;37.698;2023-06-04T08:29:28;100121.38;;;17.32
75428;BMP280;64008;55.612;37.698;2023-06-04T08:31:53;100141.19;;;17.61
75428;BMP280;64008;55.612;37.698;2023-06-04T08:34:19;100152.16;;;17.80
75428;BMP280;64008;55.612;37.698;2023-06-04T08:36:45;100142.00;;;17.67
75428;BMP280;64008;55.612;37.698;2023-06-04T08:39:11;100136.94;;;17.96
75428;BMP280;64008;55.612;37.698;2023-06-04T08:41:43;100129.72;;;17.66
75428;BMP280;64008;55.612;37.698;2023-06-04T08:44:09;100124.91;;;17.58
75428;BMP280;64008;55.612;37.698;2023-06-04T08:46:39;100128.06;;;17.44
75428;BMP280;64008;55.612;37.698;2023-06-04T08:49:06;100124.84;;;17.32
75428;BMP280;64008;55.612;37.698;2023-06-04T08:51:33;100125.28;;;17.03
75428;BMP280;64008;55.612;37.698;2023-06-04T08:53:59;100123.03;;;17.63
75428;BMP280;64008;55.612;37.698;2023-06-04T08:56:26;100134.00;;;17.92
75428;BMP280;64008;55.612;37.698;2023-06-04T08:58:56;100123.56;;;17.76
75428;BMP280;64008;55.612;37.698;2023-06-04T09:01:22;100125.69;;;18.04
75428;BMP280;64008;55.612;37.698;2023-06-04T09:03:48;100131.56;;;18.06
75428;BMP280;64008;55.612;37.698;2023-06-04T09:06:14;100143.34;;;17.95
75428;BMP280;64008;55.612;37.698;2023-06-04T09:08:43;100136.66;;;17.62
75428;BMP280;64008;55.612;37.698;2023-06-04T09:11:11;100132.88;;;18.19
75428;BMP280;64008;55.612;37.698;2023-06-04T09:13:38;100143.88;;;18.12
75428;BMP280;64008;55.612;37.698;2023-06-04T09:16:05;100146.81;;;17.70
75428;BMP280;64008;55.612;37.698;2023-06-04T09:18:33;100149.78;;;17.58
75428;BMP280;64008;55.612;37.698;2023-06-04T09:21:09;100149.50;;;17.65
75428;BMP280;64008;55.612;37.698;2023-06-04T09:23:52;100159.38;;;17.90
75428;BMP280;64008;55.612;37.698;2023-06-04T09:26:18;100171.41;;;17.77
75428;BMP280;64008;55.612;37.698;2023-06-04T09:28:44;100151.34;;;17.49
75428;BMP280;64008;55.612;37.698;2023-06-04T09:31:16;100170.06;;;17.90
75428;BMP280;64008;55.612;37.698;2023-06-04T09:33:46;100162.56;;;18.18
75428;BMP280;64008;55.612;37.698;2023-06-04T09:36:12;100153.47;;;18.19
75428;BMP280;64008;55.612;37.698;2023-06-04T09:38:38;100170.06;;;17.95
75428;BMP280;64008;55.612;37.698;2023-06-04T09:41:10;100163.31;;;17.31
75428;BMP280;64008;55.612;37.698;2023-06-04T09:43:36;100154.00;;;17.44
75428;BMP280;64008;55.612;37.698;2023-06-04T09:46:09;100158.50;;;17.23
75428;BMP280;64008;55.612;37.698;2023-06-04T09:48:36;100140.31;;;17.25
75428;BMP280;64008;55.612;37.698;2023-06-04T09:51:09;100145.19;;;17.69
75428;BMP280;64008;55.612;37.698;2023-06-04T09:53:36;100161.81;;;18.02
75428;BMP280;64008;55.612;37.698;2023-06-04T09:56:02;100154.03;;;17.75
75428;BMP280;64008;55.612;37.698;2023-06-04T09:58:32;100154.84;;;17.70
75428;BMP280;64008;55.612;37.698;2023-06-04T10:00:59;100148.44;;;17.86
75428;BMP280;64008;55.612;37.698;2023-06-04T10:03:25;100137.19;;;17.64
75428;BMP280;64008;55.612;37.698;2023-06-04T10:05:59;100142.56;;;17.79
75428;BMP280;64008;55.612;37.698;2023-06-04T10:08:30;100139.88;;;18.15
75428;BMP280;64008;55.612;37.698;2023-06-04T10:11:00;100144.69;;;17.98
75428;BMP280;64008;55.612;37.698;2023-06-04T10:13:28;100144.34;;;18.40
75428;BMP280;64008;55.612;37.698;2023-06-04T10:15:56;100144.66;;;18.18
75428;BMP280;64008;55.612;37.698;2023-06-04T10:18:23;100140.66;;;18.21
75428;BMP280;64008;55.612;37.698;2023-06-04T10:20:49;100143.34;;;18.15
75428;BMP280;64008;55.612;37.698;2023-06-04T10:23:15;100141.47;;;18.06
75428;BMP280;64008;55.612;37.698;2023-06-04T10:25:43;100132.31;;;18.43
75428;BMP280;64008;55.612;37.698;2023-06-04T10:28:10;100130.44;;;18.38
75428;BMP280;64008;55.612;37.698;2023-06-04T10:30:36;100133.34;;;18.52
75428;BMP280;64008;55.612;37.698;2023-06-04T10:33:01;100125.69;;;18.95
75428;BMP280;64008;55.612;37.698;2023-06-04T10:35:34;100148.41;;;19.03
75428;BMP280;64008;55.612;37.698;2023-06-04T10:38:13;100137.81;;;19.27
75428;BMP280;64008;55.612;37.698;2023-06-04T10:40:39;100126.78;;;19.33
75428;BMP280;64008;55.612;37.698;2023-06-04T10:43:10;100121.88;;;19.11
75428;BMP280;64008;55.612;37.698;2023-06-04T10:45:36;100129.47;;;19.38
75428;BMP280;64008;55.612;37.698;2023-06-04T10:48:04;100120.69;;;19.62
75428;BMP280;64008;55.612;37.698;2023-06-04T10:50:31;100119.78;;;20.01
75428;BMP280;64008;55.612;37.698;2023-06-04T10:52:56;100130.88;;;20.18
75428;BMP280;64008;55.612;37.698;2023-06-04T10:55:28;100131.63;;;19.71
75428;BMP280;64008;55.612;37.698;2023-06-04T10:57:58;100129.22;;;19.35
75428;BMP280;64008;55.612;37.698;2023-06-04T11:00:40;100131.97;;;19.25
75428;BMP280;64008;55.612;37.698;2023-06-04T11:03:09;100137.44;;;18.99
75428;BMP280;64008;55.612;37.698;2023-06-04T11:05:39;100134.88;;;18.73
75428;BMP280;64008;55.612;37.698;2023-06-04T11:08:05;100142.38;;;18.71
75428;BMP280;64008;55.612;37.698;2023-06-04T11:10:33;100144.81;;;18.63
75428;BMP280;64008;55.612;37.698;2023-06-04T11:13:00;100140.03;;;18.54
75428;BMP280;64008;55.612;37.698;2023-06-04T11:15:25;100138.00;;;18.26
75428;BMP280;64008;55.612;37.698;2023-06-04T11:17:55;100148.59;;;18.56
75428;BMP280;64008;55.612;37.698;2023-06-04T11:20:23;100148.41;;;18.22
75428;BMP280;64008;55.612;37.698;2023-06-04T11:22:56;100145.69;;;18.43
75428;BMP280;64008;55.612;37.698;2023-06-04T11:25:24;100149.69;;;18.50
75428;BMP280;64008;55.612;37.698;2023-06-04T11:27:52;100151.59;;;18.34
75428;BMP280;64008;55.612;37.698;2023-06-04T11:30:18;100144.84;;;18.57
75428;BMP280;64008;55.612;37.698;2023-06-04T11:32:44;100140.50;;;18.82
75428;BMP280;64008;55.612;37.698;2023-06-04T11:35:09;100134.88;;;18.84
75428;BMP280;64008;55.612;37.698;2023-06-04T11:37:37;100138.81;;;18.91
75428;BMP280;64008;55.612;37.698;2023-06-04T11:40:24;100143.88;;;18.98
75428;BMP280;64008;55.612;37.698;2023-06-04T11:42:50;100138.56;;;18.93
75428;BMP280;64008;55.612;37.698;2023-06-04T11:45:17;100148.34;;;19.08
75428;BMP280;64008;55.612;37.698;2023-06-04T11:47:56;100140.53;;;18.67
75428;BMP280;64008;55.612;37.698;2023-06-04T11:50:23;100134.69;;;18.60
75428;BMP280;64008;55.612;37.698;2023-06-04T11:52:52;100137.97;;;18.36
75428;BMP280;64008;55.612;37.698;2023-06-04T11:55:18;100148.84;;;18.65
75428;BMP280;64008;55.612;37.698;2023-06-04T11:57:47;100143.66;;;18.89
75428;BMP280;64008;55.612;37.698;2023-06-04T12:00:15;100156.81;;;18.81
75428;BMP280;64008;55.612;37.698;2023-06-04T12:02:51;100142.16;;;18.68
75428;BMP280;64008;55.612;37.698;2023-06-04T12:05:18;100144.34;;;18.50
75428;BMP280;64008;55.612;37.698;2023-06-04T12:07:48;100141.03;;;18.79
75428;BMP280;64008;55.612;37.698;2023-06-04T12:10:17;100130.63;;;19.17
75428;BMP280;64008;55.612;37.698;2023-06-04T12:12:43;100142.47;;;19.16
75428;BMP280;64008;55.612;37.698;2023-06-04T12:15:09;100141.00;;;19.34
75428;BMP280;64008;55.612;37.698;2023-06-04T12:17:35;100144.72;;;18.93
75428;BMP280;64008;55.612;37.698;2023-06-04T12:20:00;100136.00;;;18.62
75428;BMP280;64008;55.612;37.698;2023-06-04T12:22:26;100130.56;;;18.83
75428;BMP280;64008;55.612;37.698;2023-06-04T12:24:54;100147.47;;;18.73
75428;BMP280;64008;55.612;37.698;2023-06-04T12:27:21;100152.41;;;19.05
75428;BMP280;64008;55.612;37.698;2023-06-04T12:29:58;100158.06;;;18.98
75428;BMP280;64008;55.612;37.698;2023-06-04T12:32:24;100148.63;;;19.16
75428;BMP280;64008;55.612;37.698;2023-06-04T12:34:49;100146.56;;;18.98
75428;BMP280;64008;55.612;37.698;2023-06-04T12:37:15;100148.72;;;18.91
75428;BMP280;64008;55.612;37.698;2023-06-04T12:39:40;100160.59;;;18.74
75428;BMP280;64008;55.612;37.698;2023-06-04T12:42:07;100160.63;;;18.69
75428;BMP280;64008;55.612;37.698;2023-06-04T12:44:36;100144.03;;;18.62
75428;BMP280;64008;55.612;37.698;2023-06-04T12:47:03;100147.03;;;18.50
75428;BMP280;64008;55.612;37.698;2023-06-04T12:49:28;100146.72;;;18.57
75428;BMP280;64008;55.612;37.698;2023-06-04T12:51:53;100145.16;;;19.11
75428;BMP280;64008;55.612;37.698;2023-06-04T12:54:19;100147.09;;;19.00
75428;BMP280;64008;55.612;37.698;2023-06-04T12:56:45;100142.06;;;18.88
75428;BMP280;64008;55.612;37.698;2023-06-04T12:59:10;100138.06;;;18.75
75428;BMP280;64008;55.612;37.698;2023-06-04T13:01:36;100146.56;;;18.98
75428;BMP280;64008;55.612;37.698;2023-06-04T13:04:02;100139.13;;;19.34
75428;BMP280;64008;55.612;37.698;2023-06-04T13:06:28;100126.53;;;19.69
75428;BMP280;64008;55.612;37.698;2023-06-04T13:08:54;100121.97;;;19.70
75428;BMP280;64008;55.612;37.698;2023-06-04T13:11:20;100138.41;;;19.92
75428;BMP280;64008;55.612;37.698;2023-06-04T13:13:47;100146.81;;;19.80
75428;BMP280;64008;55.612;37.698;2023-06-04T13:16:13;100128.34;;;19.79
75428;BMP280;64008;55.612;37.698;2023-06-04T13:18:38;100115.88;;;20.17
75428;BMP280;64008;55.612;37.698;2023-06-04T13:21:04;100125.03;;;19.87
75428;BMP280;64008;55.612;37.698;2023-06-04T13:23:29;100135.53;;;19.83
75428;BMP280;64008;55.612;37.698;2023-06-04T13:25:55;100143.25;;;19.90
75428;BMP280;64008;55.612;37.698;2023-06-04T13:28:20;100136.16;;;19.70
75428;BMP280;64008;55.612;37.698;2023-06-04T13:30:46;100140.97;;;19.73
75428;BMP280;64008;55.612;37.698;2023-06-04T13:33:12;100135.09;;;20.00
75428;BMP280;64008;55.612;37.698;2023-06-04T13:35:37;100135.06;;;20.29
75428;BMP280;64008;55.612;37.698;2023-06-04T13:38:06;100122.69;;;20.34
75428;BMP280;64008;55.612;37.698;2023-06-04T13:40:34;100129.53;;;20.21
75428;BMP280;64008;55.612;37.698;2023-06-04T13:43:00;100126.47;;;20.03
75428;BMP280;64008;55.612;37.698;2023-06-04T13:45:25;100123.00;;;20.03
75428;BMP280;64008;55.612;37.698;2023-06-04T13:47:51;100126.84;;;19.97
75428;BMP280;64008;55.612;37.698;2023-06-04T13:50:16;100127.25;;;19.46